Aviation Digital Data Service (ADDS)

Output produced by METARs form (0105 UTC 01 November 2014)
found at http://aviationweather.gov/adds/metars/
 
KLGA 312339Z 0100/0124 06013KT P6SM FEW025 SCT035 OVC045 
     TEMPO 0100/0102 -RA BKN035 
     FM010200 05014G20KT P6SM -RA OVC025 
     FM010600 03015G22KT 5SM -RA BR OVC015 
     FM011500 03020G27KT 3SM RA BR OVC010 
     FM012000 36021G31KT 5SM -RA BR OVC015 
     FM012300 36020G30KT P6SM SCT015 BKN025 OVC035